sensor_id;sensor_type;location;lat;lon;timestamp;P1;durP1;ratioP1;P2;durP2;ratioP2
9447;SDS011;4762;48.128;11.376;2023-02-23T00:00:57;11.50;;;5.87;;
9447;SDS011;4762;48.128;11.376;2023-02-23T00:02:59;10.30;;;4.47;;
9447;SDS011;4762;48.128;11.376;2023-02-23T00:05:01;9.33;;;4.30;;
9447;SDS011;4762;48.128;11.376;2023-02-23T00:07:04;15.10;;;4.30;;
9447;SDS011;4762;48.128;11.376;2023-02-23T00:09:06;13.70;;;5.70;;
9447;SDS011;4762;48.128;11.376;2023-02-23T00:11:10;10.70;;;4.43;;
9447;SDS011;4762;48.128;11.376;2023-02-23T00:13:12;14.87;;;5.40;;
9447;SDS011;4762;48.128;11.376;2023-02-23T00:15:15;8.37;;;5.20;;
9447;SDS011;4762;48.128;11.376;2023-02-23T00:17:17;8.37;;;4.60;;
9447;SDS011;4762;48.128;11.376;2023-02-23T00:19:19;8.50;;;5.00;;
9447;SDS011;4762;48.128;11.376;2023-02-23T00:21:23;8.83;;;4.40;;
9447;SDS011;4762;48.128;11.376;2023-02-23T00:23:24;9.67;;;5.20;;
9447;SDS011;4762;48.128;11.376;2023-02-23T00:25:26;6.90;;;5.00;;
9447;SDS011;4762;48.128;11.376;2023-02-23T00:27:28;13.33;;;5.53;;
9447;SDS011;4762;48.128;11.376;2023-02-23T00:29:30;8.20;;;4.80;;
9447;SDS011;4762;48.128;11.376;2023-02-23T00:31:33;8.00;;;5.00;;
9447;SDS011;4762;48.128;11.376;2023-02-23T00:33:35;8.17;;;4.93;;
9447;SDS011;4762;48.128;11.376;2023-02-23T00:35:37;6.20;;;4.07;;
9447;SDS011;4762;48.128;11.376;2023-02-23T00:37:39;10.70;;;4.90;;
9447;SDS011;4762;48.128;11.376;2023-02-23T00:39:42;6.20;;;4.40;;
9447;SDS011;4762;48.128;11.376;2023-02-23T00:41:44;7.47;;;4.40;;
9447;SDS011;4762;48.128;11.376;2023-02-23T00:43:46;8.47;;;4.60;;
9447;SDS011;4762;48.128;11.376;2023-02-23T00:45:48;9.70;;;4.80;;
9447;SDS011;4762;48.128;11.376;2023-02-23T00:47:51;6.27;;;3.90;;
9447;SDS011;4762;48.128;11.376;2023-02-23T00:49:53;8.40;;;4.57;;
9447;SDS011;4762;48.128;11.376;2023-02-23T00:51:55;13.03;;;5.37;;
9447;SDS011;4762;48.128;11.376;2023-02-23T00:53:58;7.57;;;4.63;;
9447;SDS011;4762;48.128;11.376;2023-02-23T00:56:00;12.50;;;5.13;;
9447;SDS011;4762;48.128;11.376;2023-02-23T00:58:02;12.63;;;4.80;;
9447;SDS011;4762;48.128;11.376;2023-02-23T01:00:05;6.43;;;4.33;;
9447;SDS011;4762;48.128;11.376;2023-02-23T01:02:12;7.97;;;4.77;;
9447;SDS011;4762;48.128;11.376;2023-02-23T01:04:15;14.23;;;5.73;;
9447;SDS011;4762;48.128;11.376;2023-02-23T01:06:17;9.57;;;4.80;;
9447;SDS011;4762;48.128;11.376;2023-02-23T01:08:19;10.33;;;5.93;;
9447;SDS011;4762;48.128;11.376;2023-02-23T01:10:21;7.07;;;4.67;;
9447;SDS011;4762;48.128;11.376;2023-02-23T01:12:24;19.37;;;5.10;;
9447;SDS011;4762;48.128;11.376;2023-02-23T01:14:26;7.17;;;4.60;;
9447;SDS011;4762;48.128;11.376;2023-02-23T01:16:29;12.13;;;5.37;;
9447;SDS011;4762;48.128;11.376;2023-02-23T01:18:30;6.97;;;4.63;;
9447;SDS011;4762;48.128;11.376;2023-02-23T01:20:33;8.40;;;4.80;;
9447;SDS011;4762;48.128;11.376;2023-02-23T01:22:35;7.67;;;4.40;;
9447;SDS011;4762;48.128;11.376;2023-02-23T01:24:37;8.70;;;5.43;;
9447;SDS011;4762;48.128;11.376;2023-02-23T01:26:40;9.60;;;5.57;;
9447;SDS011;4762;48.128;11.376;2023-02-23T01:28:42;14.80;;;4.57;;
9447;SDS011;4762;48.128;11.376;2023-02-23T01:30:44;8.27;;;4.87;;
9447;SDS011;4762;48.128;11.376;2023-02-23T01:32:46;6.23;;;4.33;;
9447;SDS011;4762;48.128;11.376;2023-02-23T01:34:49;11.20;;;6.60;;
9447;SDS011;4762;48.128;11.376;2023-02-23T01:36:51;8.17;;;4.67;;
9447;SDS011;4762;48.128;11.376;2023-02-23T01:38:53;14.63;;;5.20;;
9447;SDS011;4762;48.128;11.376;2023-02-23T01:40:55;8.90;;;5.50;;
9447;SDS011;4762;48.128;11.376;2023-02-23T01:42:59;6.83;;;5.00;;
9447;SDS011;4762;48.128;11.376;2023-02-23T01:45:15;9.17;;;4.90;;
9447;SDS011;4762;48.128;11.376;2023-02-23T01:47:09;8.80;;;5.40;;
9447;SDS011;4762;48.128;11.376;2023-02-23T01:49:14;6.83;;;4.60;;
9447;SDS011;4762;48.128;11.376;2023-02-23T01:51:16;7.47;;;4.27;;
9447;SDS011;4762;48.128;11.376;2023-02-23T01:53:18;7.80;;;3.20;;
9447;SDS011;4762;48.128;11.376;2023-02-23T01:55:23;9.90;;;4.77;;
9447;SDS011;4762;48.128;11.376;2023-02-23T01:57:25;7.37;;;3.97;;
9447;SDS011;4762;48.128;11.376;2023-02-23T01:59:29;14.37;;;5.00;;
9447;SDS011;4762;48.128;11.376;2023-02-23T02:01:45;7.33;;;3.50;;
9447;SDS011;4762;48.128;11.376;2023-02-23T02:03:48;6.47;;;4.40;;
9447;SDS011;4762;48.128;11.376;2023-02-23T02:06:06;9.03;;;4.37;;
9447;SDS011;4762;48.128;11.376;2023-02-23T02:08:08;10.87;;;5.20;;
9447;SDS011;4762;48.128;11.376;2023-02-23T02:10:10;6.60;;;4.27;;
9447;SDS011;4762;48.128;11.376;2023-02-23T02:12:22;10.60;;;5.50;;
9447;SDS011;4762;48.128;11.376;2023-02-23T02:14:26;8.93;;;4.70;;
9447;SDS011;4762;48.128;11.376;2023-02-23T02:16:33;6.07;;;4.10;;
9447;SDS011;4762;48.128;11.376;2023-02-23T02:18:41;10.17;;;4.40;;
9447;SDS011;4762;48.128;11.376;2023-02-23T02:20:46;6.57;;;3.00;;
9447;SDS011;4762;48.128;11.376;2023-02-23T02:25:43;11.30;;;4.33;;
9447;SDS011;4762;48.128;11.376;2023-02-23T02:28:07;10.50;;;4.00;;
9447;SDS011;4762;48.128;11.376;2023-02-23T02:30:15;7.83;;;3.70;;
9447;SDS011;4762;48.128;11.376;2023-02-23T02:32:23;4.27;;;2.70;;
9447;SDS011;4762;48.128;11.376;2023-02-23T02:34:25;19.20;;;2.90;;
9447;SDS011;4762;48.128;11.376;2023-02-23T02:36:54;3.97;;;2.80;;
9447;SDS011;4762;48.128;11.376;2023-02-23T02:39:10;6.70;;;2.63;;
9447;SDS011;4762;48.128;11.376;2023-02-23T02:41:15;5.70;;;2.70;;
9447;SDS011;4762;48.128;11.376;2023-02-23T02:43:18;4.43;;;2.80;;
9447;SDS011;4762;48.128;11.376;2023-02-23T02:45:22;6.77;;;3.17;;
9447;SDS011;4762;48.128;11.376;2023-02-23T02:47:26;6.13;;;3.23;;
9447;SDS011;4762;48.128;11.376;2023-02-23T02:49:30;5.90;;;3.53;;
9447;SDS011;4762;48.128;11.376;2023-02-23T02:51:36;4.83;;;2.70;;
9447;SDS011;4762;48.128;11.376;2023-02-23T02:53:50;12.57;;;3.57;;
9447;SDS011;4762;48.128;11.376;2023-02-23T02:55:50;9.23;;;3.00;;
9447;SDS011;4762;48.128;11.376;2023-02-23T02:57:53;6.27;;;2.70;;
9447;SDS011;4762;48.128;11.376;2023-02-23T02:59:55;6.70;;;3.57;;
9447;SDS011;4762;48.128;11.376;2023-02-23T03:02:08;9.00;;;3.07;;
9447;SDS011;4762;48.128;11.376;2023-02-23T03:04:20;4.93;;;3.00;;
9447;SDS011;4762;48.128;11.376;2023-02-23T03:06:30;5.90;;;2.87;;
9447;SDS011;4762;48.128;11.376;2023-02-23T03:10:54;7.77;;;3.23;;
9447;SDS011;4762;48.128;11.376;2023-02-23T03:13:10;6.90;;;3.43;;
9447;SDS011;4762;48.128;11.376;2023-02-23T03:18:00;3.97;;;2.50;;
9447;SDS011;4762;48.128;11.376;2023-02-23T03:20:42;5.23;;;2.33;;
9447;SDS011;4762;48.128;11.376;2023-02-23T03:22:38;5.43;;;2.90;;
9447;SDS011;4762;48.128;11.376;2023-02-23T03:24:48;5.40;;;2.30;;
9447;SDS011;4762;48.128;11.376;2023-02-23T03:26:59;4.80;;;2.10;;
9447;SDS011;4762;48.128;11.376;2023-02-23T03:29:08;4.77;;;2.90;;
9447;SDS011;4762;48.128;11.376;2023-02-23T03:33:50;5.30;;;2.80;;
9447;SDS011;4762;48.128;11.376;2023-02-23T03:35:56;5.43;;;3.40;;
9447;SDS011;4762;48.128;11.376;2023-02-23T03:38:15;5.03;;;2.43;;
9447;SDS011;4762;48.128;11.376;2023-02-23T03:40:24;18.37;;;4.43;;
9447;SDS011;4762;48.128;11.376;2023-02-23T03:42:31;4.97;;;2.67;;
9447;SDS011;4762;48.128;11.376;2023-02-23T03:44:40;5.77;;;2.90;;
9447;SDS011;4762;48.128;11.376;2023-02-23T03:46:47;6.60;;;3.03;;
9447;SDS011;4762;48.128;11.376;2023-02-23T03:48:54;7.73;;;2.97;;
9447;SDS011;4762;48.128;11.376;2023-02-23T03:51:03;8.23;;;2.67;;
9447;SDS011;4762;48.128;11.376;2023-02-23T03:53:11;29.53;;;3.23;;
9447;SDS011;4762;48.128;11.376;2023-02-23T03:55:20;4.60;;;2.87;;
9447;SDS011;4762;48.128;11.376;2023-02-23T03:57:26;4.47;;;2.63;;
9447;SDS011;4762;48.128;11.376;2023-02-23T03:59:37;6.57;;;2.23;;
9447;SDS011;4762;48.128;11.376;2023-02-23T04:01:45;10.03;;;3.50;;
9447;SDS011;4762;48.128;11.376;2023-02-23T04:03:52;9.97;;;2.80;;
9447;SDS011;4762;48.128;11.376;2023-02-23T04:06:00;3.30;;;2.13;;
9447;SDS011;4762;48.128;11.376;2023-02-23T04:08:11;5.90;;;3.03;;
9447;SDS011;4762;48.128;11.376;2023-02-23T04:10:16;8.10;;;3.30;;
9447;SDS011;4762;48.128;11.376;2023-02-23T04:12:36;8.07;;;3.27;;
9447;SDS011;4762;48.128;11.376;2023-02-23T04:14:50;7.77;;;2.67;;
9447;SDS011;4762;48.128;11.376;2023-02-23T04:16:49;8.53;;;2.70;;
9447;SDS011;4762;48.128;11.376;2023-02-23T04:18:51;4.70;;;2.77;;
9447;SDS011;4762;48.128;11.376;2023-02-23T04:20:53;4.13;;;2.07;;
9447;SDS011;4762;48.128;11.376;2023-02-23T04:22:55;4.70;;;2.60;;
9447;SDS011;4762;48.128;11.376;2023-02-23T04:24:58;5.73;;;2.97;;
9447;SDS011;4762;48.128;11.376;2023-02-23T04:27:00;3.67;;;2.57;;
9447;SDS011;4762;48.128;11.376;2023-02-23T04:29:02;4.40;;;2.83;;
9447;SDS011;4762;48.128;11.376;2023-02-23T04:31:04;4.43;;;2.40;;
9447;SDS011;4762;48.128;11.376;2023-02-23T04:33:07;5.53;;;2.90;;
9447;SDS011;4762;48.128;11.376;2023-02-23T04:35:09;5.87;;;2.80;;
9447;SDS011;4762;48.128;11.376;2023-02-23T04:37:11;4.20;;;2.70;;
9447;SDS011;4762;48.128;11.376;2023-02-23T04:39:13;6.10;;;3.10;;
9447;SDS011;4762;48.128;11.376;2023-02-23T04:41:16;4.67;;;2.90;;
9447;SDS011;4762;48.128;11.376;2023-02-23T04:43:18;5.30;;;2.17;;
9447;SDS011;4762;48.128;11.376;2023-02-23T04:45:20;11.43;;;3.33;;
9447;SDS011;4762;48.128;11.376;2023-02-23T04:47:22;5.83;;;2.70;;
9447;SDS011;4762;48.128;11.376;2023-02-23T04:49:25;9.97;;;3.80;;
9447;SDS011;4762;48.128;11.376;2023-02-23T04:51:27;9.50;;;3.77;;
9447;SDS011;4762;48.128;11.376;2023-02-23T04:53:29;5.97;;;3.17;;
9447;SDS011;4762;48.128;11.376;2023-02-23T04:55:31;8.20;;;3.93;;
9447;SDS011;4762;48.128;11.376;2023-02-23T04:57:34;7.77;;;4.70;;
9447;SDS011;4762;48.128;11.376;2023-02-23T04:59:36;10.50;;;3.80;;
9447;SDS011;4762;48.128;11.376;2023-02-23T05:01:38;6.00;;;3.40;;
9447;SDS011;4762;48.128;11.376;2023-02-23T05:03:40;5.40;;;3.20;;
9447;SDS011;4762;48.128;11.376;2023-02-23T05:05:43;7.63;;;3.70;;
9447;SDS011;4762;48.128;11.376;2023-02-23T05:07:46;9.10;;;2.90;;
9447;SDS011;4762;48.128;11.376;2023-02-23T05:09:48;8.00;;;3.40;;
9447;SDS011;4762;48.128;11.376;2023-02-23T05:11:50;8.40;;;4.03;;
9447;SDS011;4762;48.128;11.376;2023-02-23T05:13:52;6.07;;;3.80;;
9447;SDS011;4762;48.128;11.376;2023-02-23T05:15:55;6.50;;;3.40;;
9447;SDS011;4762;48.128;11.376;2023-02-23T05:17:57;5.93;;;3.50;;
9447;SDS011;4762;48.128;11.376;2023-02-23T05:19:59;11.97;;;4.23;;
9447;SDS011;4762;48.128;11.376;2023-02-23T05:22:01;11.20;;;4.83;;
9447;SDS011;4762;48.128;11.376;2023-02-23T05:24:04;10.53;;;3.90;;
9447;SDS011;4762;48.128;11.376;2023-02-23T05:26:07;14.70;;;3.17;;
9447;SDS011;4762;48.128;11.376;2023-02-23T05:28:09;11.20;;;4.23;;
9447;SDS011;4762;48.128;11.376;2023-02-23T05:30:12;15.03;;;5.10;;
9447;SDS011;4762;48.128;11.376;2023-02-23T05:32:14;6.17;;;3.30;;
9447;SDS011;4762;48.128;11.376;2023-02-23T05:34:16;6.40;;;3.20;;
9447;SDS011;4762;48.128;11.376;2023-02-23T05:36:19;10.03;;;3.23;;
9447;SDS011;4762;48.128;11.376;2023-02-23T05:38:21;7.00;;;3.70;;
9447;SDS011;4762;48.128;11.376;2023-02-23T05:40:23;6.77;;;3.43;;
9447;SDS011;4762;48.128;11.376;2023-02-23T05:42:25;5.30;;;2.90;;
9447;SDS011;4762;48.128;11.376;2023-02-23T05:44:27;5.50;;;2.90;;
9447;SDS011;4762;48.128;11.376;2023-02-23T05:46:30;3.80;;;2.50;;
9447;SDS011;4762;48.128;11.376;2023-02-23T05:48:32;4.30;;;2.20;;
9447;SDS011;4762;48.128;11.376;2023-02-23T05:50:34;5.40;;;3.23;;
9447;SDS011;4762;48.128;11.376;2023-02-23T05:52:38;5.47;;;3.27;;
9447;SDS011;4762;48.128;11.376;2023-02-23T05:54:40;6.03;;;3.37;;
9447;SDS011;4762;48.128;11.376;2023-02-23T05:56:42;6.33;;;3.07;;
9447;SDS011;4762;48.128;11.376;2023-02-23T05:58:45;12.37;;;3.10;;
9447;SDS011;4762;48.128;11.376;2023-02-23T06:00:49;5.03;;;2.47;;
9447;SDS011;4762;48.128;11.376;2023-02-23T06:02:52;7.00;;;2.70;;
9447;SDS011;4762;48.128;11.376;2023-02-23T06:04:54;5.63;;;2.40;;
9447;SDS011;4762;48.128;11.376;2023-02-23T06:06:56;4.80;;;2.47;;
9447;SDS011;4762;48.128;11.376;2023-02-23T06:08:58;10.87;;;2.93;;
9447;SDS011;4762;48.128;11.376;2023-02-23T06:11:00;4.00;;;2.07;;
9447;SDS011;4762;48.128;11.376;2023-02-23T06:13:03;5.63;;;2.37;;
9447;SDS011;4762;48.128;11.376;2023-02-23T06:15:05;7.70;;;3.40;;
9447;SDS011;4762;48.128;11.376;2023-02-23T06:17:08;11.10;;;4.00;;
9447;SDS011;4762;48.128;11.376;2023-02-23T06:19:10;7.37;;;3.27;;
9447;SDS011;4762;48.128;11.376;2023-02-23T06:21:12;4.67;;;2.80;;
9447;SDS011;4762;48.128;11.376;2023-02-23T06:23:15;4.47;;;2.50;;
9447;SDS011;4762;48.128;11.376;2023-02-23T06:25:17;3.40;;;2.20;;
9447;SDS011;4762;48.128;11.376;2023-02-23T06:27:19;4.50;;;2.40;;
9447;SDS011;4762;48.128;11.376;2023-02-23T06:29:21;9.40;;;2.47;;
9447;SDS011;4762;48.128;11.376;2023-02-23T06:31:24;11.60;;;3.47;;
9447;SDS011;4762;48.128;11.376;2023-02-23T06:33:26;5.13;;;2.67;;
9447;SDS011;4762;48.128;11.376;2023-02-23T06:35:28;5.93;;;3.00;;
9447;SDS011;4762;48.128;11.376;2023-02-23T06:37:31;7.23;;;2.80;;
9447;SDS011;4762;48.128;11.376;2023-02-23T06:39:33;11.30;;;3.93;;
9447;SDS011;4762;48.128;11.376;2023-02-23T06:41:35;5.63;;;3.10;;
9447;SDS011;4762;48.128;11.376;2023-02-23T06:43:37;6.50;;;2.63;;
9447;SDS011;4762;48.128;11.376;2023-02-23T06:45:39;3.17;;;2.37;;
9447;SDS011;4762;48.128;11.376;2023-02-23T06:47:42;8.63;;;3.70;;
9447;SDS011;4762;48.128;11.376;2023-02-23T06:49:44;7.90;;;2.70;;
9447;SDS011;4762;48.128;11.376;2023-02-23T06:51:46;8.23;;;3.30;;
9447;SDS011;4762;48.128;11.376;2023-02-23T06:53:48;9.90;;;2.80;;
9447;SDS011;4762;48.128;11.376;2023-02-23T06:55:50;13.83;;;2.17;;
9447;SDS011;4762;48.128;11.376;2023-02-23T06:57:53;8.43;;;2.67;;
9447;SDS011;4762;48.128;11.376;2023-02-23T06:59:55;6.87;;;2.80;;
9447;SDS011;4762;48.128;11.376;2023-02-23T07:01:57;4.03;;;1.77;;
9447;SDS011;4762;48.128;11.376;2023-02-23T07:03:59;14.93;;;2.60;;
9447;SDS011;4762;48.128;11.376;2023-02-23T07:06:02;14.33;;;3.13;;
9447;SDS011;4762;48.128;11.376;2023-02-23T07:08:04;6.67;;;2.70;;
9447;SDS011;4762;48.128;11.376;2023-02-23T07:10:07;3.40;;;2.20;;
9447;SDS011;4762;48.128;11.376;2023-02-23T07:12:10;13.80;;;2.87;;
9447;SDS011;4762;48.128;11.376;2023-02-23T07:14:12;6.10;;;3.00;;
9447;SDS011;4762;48.128;11.376;2023-02-23T07:16:14;5.30;;;2.97;;
9447;SDS011;4762;48.128;11.376;2023-02-23T07:18:16;5.07;;;2.77;;
9447;SDS011;4762;48.128;11.376;2023-02-23T07:20:18;7.17;;;2.63;;
9447;SDS011;4762;48.128;11.376;2023-02-23T07:22:21;7.63;;;3.10;;
9447;SDS011;4762;48.128;11.376;2023-02-23T07:24:23;8.77;;;3.97;;
9447;SDS011;4762;48.128;11.376;2023-02-23T07:26:25;7.77;;;2.77;;
9447;SDS011;4762;48.128;11.376;2023-02-23T07:28:27;5.20;;;2.87;;
9447;SDS011;4762;48.128;11.376;2023-02-23T07:30:30;8.97;;;3.20;;
9447;SDS011;4762;48.128;11.376;2023-02-23T07:32:32;9.10;;;3.50;;
9447;SDS011;4762;48.128;11.376;2023-02-23T07:34:34;8.50;;;3.50;;
9447;SDS011;4762;48.128;11.376;2023-02-23T07:36:36;6.00;;;2.87;;
9447;SDS011;4762;48.128;11.376;2023-02-23T07:38:39;5.43;;;2.73;;
9447;SDS011;4762;48.128;11.376;2023-02-23T07:40:41;9.77;;;3.50;;
9447;SDS011;4762;48.128;11.376;2023-02-23T07:42:43;10.97;;;2.33;;
9447;SDS011;4762;48.128;11.376;2023-02-23T07:44:45;7.53;;;2.80;;
9447;SDS011;4762;48.128;11.376;2023-02-23T07:46:48;6.07;;;2.57;;
9447;SDS011;4762;48.128;11.376;2023-02-23T07:48:52;6.90;;;3.10;;
9447;SDS011;4762;48.128;11.376;2023-02-23T07:50:55;5.87;;;2.80;;
9447;SDS011;4762;48.128;11.376;2023-02-23T07:52:57;7.47;;;2.87;;
9447;SDS011;4762;48.128;11.376;2023-02-23T07:54:59;7.33;;;3.27;;
9447;SDS011;4762;48.128;11.376;2023-02-23T07:57:01;4.57;;;2.80;;
9447;SDS011;4762;48.128;11.376;2023-02-23T07:59:04;5.90;;;2.40;;
9447;SDS011;4762;48.128;11.376;2023-02-23T08:01:06;4.40;;;2.67;;
9447;SDS011;4762;48.128;11.376;2023-02-23T08:03:08;6.70;;;3.13;;
9447;SDS011;4762;48.128;11.376;2023-02-23T08:05:11;5.57;;;2.67;;
9447;SDS011;4762;48.128;11.376;2023-02-23T08:07:13;4.90;;;2.83;;
9447;SDS011;4762;48.128;11.376;2023-02-23T08:09:15;5.10;;;3.27;;
9447;SDS011;4762;48.128;11.376;2023-02-23T08:11:17;3.93;;;2.00;;
9447;SDS011;4762;48.128;11.376;2023-02-23T08:13:19;2.70;;;1.37;;
9447;SDS011;4762;48.128;11.376;2023-02-23T08:15:22;8.23;;;2.83;;
9447;SDS011;4762;48.128;11.376;2023-02-23T08:17:24;5.70;;;2.97;;
9447;SDS011;4762;48.128;11.376;2023-02-23T08:19:27;6.27;;;2.23;;
9447;SDS011;4762;48.128;11.376;2023-02-23T08:21:29;4.47;;;2.60;;
9447;SDS011;4762;48.128;11.376;2023-02-23T08:23:32;5.00;;;2.60;;
9447;SDS011;4762;48.128;11.376;2023-02-23T08:25:34;8.57;;;2.30;;
9447;SDS011;4762;48.128;11.376;2023-02-23T08:27:36;6.80;;;2.80;;
9447;SDS011;4762;48.128;11.376;2023-02-23T08:29:38;6.60;;;2.10;;
9447;SDS011;4762;48.128;11.376;2023-02-23T08:31:40;8.13;;;2.60;;
9447;SDS011;4762;48.128;11.376;2023-02-23T08:33:42;5.43;;;2.20;;
9447;SDS011;4762;48.128;11.376;2023-02-23T08:35:45;6.37;;;2.60;;
9447;SDS011;4762;48.128;11.376;2023-02-23T08:37:47;4.77;;;2.67;;
9447;SDS011;4762;48.128;11.376;2023-02-23T08:39:49;3.13;;;2.30;;
9447;SDS011;4762;48.128;11.376;2023-02-23T08:41:53;5.87;;;3.00;;
9447;SDS011;4762;48.128;11.376;2023-02-23T08:43:57;4.50;;;2.50;;
9447;SDS011;4762;48.128;11.376;2023-02-23T08:45:58;3.83;;;2.20;;
9447;SDS011;4762;48.128;11.376;2023-02-23T08:48:00;3.77;;;2.23;;
9447;SDS011;4762;48.128;11.376;2023-02-23T08:50:03;5.80;;;2.47;;
9447;SDS011;4762;48.128;11.376;2023-02-23T08:52:05;3.77;;;2.30;;
9447;SDS011;4762;48.128;11.376;2023-02-23T08:54:07;7.90;;;2.40;;
9447;SDS011;4762;48.128;11.376;2023-02-23T08:56:09;8.23;;;3.10;;
9447;SDS011;4762;48.128;11.376;2023-02-23T08:58:12;5.10;;;2.93;;
9447;SDS011;4762;48.128;11.376;2023-02-23T09:00:14;5.57;;;2.30;;
9447;SDS011;4762;48.128;11.376;2023-02-23T09:02:17;5.07;;;2.97;;
9447;SDS011;4762;48.128;11.376;2023-02-23T09:04:19;5.67;;;3.03;;
9447;SDS011;4762;48.128;11.376;2023-02-23T09:06:22;4.30;;;2.40;;
9447;SDS011;4762;48.128;11.376;2023-02-23T09:08:24;4.63;;;2.80;;
9447;SDS011;4762;48.128;11.376;2023-02-23T09:10:26;7.57;;;2.67;;
9447;SDS011;4762;48.128;11.376;2023-02-23T09:12:29;9.20;;;3.77;;
9447;SDS011;4762;48.128;11.376;2023-02-23T09:14:31;4.93;;;3.23;;
9447;SDS011;4762;48.128;11.376;2023-02-23T09:16:33;5.27;;;3.57;;
9447;SDS011;4762;48.128;11.376;2023-02-23T09:18:35;6.07;;;2.80;;
9447;SDS011;4762;48.128;11.376;2023-02-23T09:20:40;7.77;;;4.07;;
9447;SDS011;4762;48.128;11.376;2023-02-23T09:22:40;5.20;;;2.90;;
9447;SDS011;4762;48.128;11.376;2023-02-23T09:24:45;7.13;;;3.20;;
9447;SDS011;4762;48.128;11.376;2023-02-23T09:26:47;7.33;;;3.47;;
9447;SDS011;4762;48.128;11.376;2023-02-23T09:28:49;7.13;;;3.50;;
9447;SDS011;4762;48.128;11.376;2023-02-23T09:30:51;4.63;;;2.80;;
9447;SDS011;4762;48.128;11.376;2023-02-23T09:32:54;4.80;;;2.87;;
9447;SDS011;4762;48.128;11.376;2023-02-23T09:34:56;6.40;;;3.87;;
9447;SDS011;4762;48.128;11.376;2023-02-23T09:37:00;8.20;;;2.50;;
9447;SDS011;4762;48.128;11.376;2023-02-23T09:39:00;8.53;;;3.07;;
9447;SDS011;4762;48.128;11.376;2023-02-23T09:41:03;7.20;;;3.33;;
9447;SDS011;4762;48.128;11.376;2023-02-23T09:43:11;7.60;;;3.50;;
9447;SDS011;4762;48.128;11.376;2023-02-23T09:45:17;5.00;;;2.93;;
9447;SDS011;4762;48.128;11.376;2023-02-23T09:47:27;4.17;;;3.03;;
9447;SDS011;4762;48.128;11.376;2023-02-23T09:49:27;7.73;;;3.07;;
9447;SDS011;4762;48.128;11.376;2023-02-23T09:51:29;5.40;;;2.60;;
9447;SDS011;4762;48.128;11.376;2023-02-23T09:53:39;6.33;;;3.00;;
9447;SDS011;4762;48.128;11.376;2023-02-23T09:55:46;6.20;;;2.60;;
9447;SDS011;4762;48.128;11.376;2023-02-23T09:57:49;7.73;;;3.03;;
9447;SDS011;4762;48.128;11.376;2023-02-23T09:59:51;4.90;;;2.77;;
9447;SDS011;4762;48.128;11.376;2023-02-23T10:01:55;5.70;;;3.07;;
9447;SDS011;4762;48.128;11.376;2023-02-23T10:04:00;3.20;;;2.37;;
9447;SDS011;4762;48.128;11.376;2023-02-23T10:06:16;6.77;;;3.20;;
9447;SDS011;4762;48.128;11.376;2023-02-23T10:08:21;4.80;;;2.73;;
9447;SDS011;4762;48.128;11.376;2023-02-23T10:10:33;7.97;;;2.63;;
9447;SDS011;4762;48.128;11.376;2023-02-23T10:12:34;7.43;;;3.50;;
9447;SDS011;4762;48.128;11.376;2023-02-23T10:16:03;5.33;;;2.73;;
9447;SDS011;4762;48.128;11.376;2023-02-23T10:17:24;6.60;;;3.23;;
9447;SDS011;4762;48.128;11.376;2023-02-23T10:21:38;5.43;;;2.77;;
9447;SDS011;4762;48.128;11.376;2023-02-23T10:23:42;4.93;;;2.97;;
9447;SDS011;4762;48.128;11.376;2023-02-23T10:25:58;6.23;;;2.90;;
9447;SDS011;4762;48.128;11.376;2023-02-23T10:27:59;5.23;;;2.87;;
9447;SDS011;4762;48.128;11.376;2023-02-23T10:30:02;5.67;;;2.80;;
9447;SDS011;4762;48.128;11.376;2023-02-23T10:32:06;25.43;;;3.50;;
9447;SDS011;4762;48.128;11.376;2023-02-23T10:34:11;4.10;;;2.87;;
9447;SDS011;4762;48.128;11.376;2023-02-23T10:36:15;5.80;;;3.30;;
9447;SDS011;4762;48.128;11.376;2023-02-23T10:38:15;4.40;;;2.90;;
9447;SDS011;4762;48.128;11.376;2023-02-23T10:40:18;8.30;;;2.87;;
9447;SDS011;4762;48.128;11.376;2023-02-23T10:42:22;4.40;;;2.80;;
9447;SDS011;4762;48.128;11.376;2023-02-23T10:44:24;5.77;;;3.20;;
9447;SDS011;4762;48.128;11.376;2023-02-23T10:46:28;3.60;;;2.50;;
9447;SDS011;4762;48.128;11.376;2023-02-23T10:48:31;3.73;;;2.50;;
9447;SDS011;4762;48.128;11.376;2023-02-23T10:50:31;5.87;;;3.00;;
9447;SDS011;4762;48.128;11.376;2023-02-23T10:52:34;22.37;;;3.23;;
9447;SDS011;4762;48.128;11.376;2023-02-23T10:54:38;5.70;;;3.30;;
9447;SDS011;4762;48.128;11.376;2023-02-23T10:56:43;7.33;;;3.40;;
9447;SDS011;4762;48.128;11.376;2023-02-23T10:58:45;5.53;;;3.00;;
9447;SDS011;4762;48.128;11.376;2023-02-23T11:00:49;5.37;;;3.30;;
9447;SDS011;4762;48.128;11.376;2023-02-23T11:02:52;4.87;;;3.00;;
9447;SDS011;4762;48.128;11.376;2023-02-23T11:04:55;4.17;;;3.10;;
9447;SDS011;4762;48.128;11.376;2023-02-23T11:07:05;4.70;;;3.10;;
9447;SDS011;4762;48.128;11.376;2023-02-23T11:11:22;4.27;;;2.80;;
9447;SDS011;4762;48.128;11.376;2023-02-23T11:13:26;3.97;;;2.47;;
9447;SDS011;4762;48.128;11.376;2023-02-23T11:15:28;4.90;;;2.60;;
9447;SDS011;4762;48.128;11.376;2023-02-23T11:17:34;10.37;;;2.93;;
9447;SDS011;4762;48.128;11.376;2023-02-23T11:19:35;4.67;;;2.07;;
9447;SDS011;4762;48.128;11.376;2023-02-23T11:21:38;3.87;;;2.03;;
9447;SDS011;4762;48.128;11.376;2023-02-23T11:23:40;4.77;;;2.67;;
9447;SDS011;4762;48.128;11.376;2023-02-23T11:25:43;3.40;;;1.90;;
9447;SDS011;4762;48.128;11.376;2023-02-23T11:27:46;3.70;;;2.20;;
9447;SDS011;4762;48.128;11.376;2023-02-23T11:29:48;3.67;;;2.00;;
9447;SDS011;4762;48.128;11.376;2023-02-23T11:31:51;5.70;;;3.67;;
9447;SDS011;4762;48.128;11.376;2023-02-23T11:33:53;11.43;;;3.37;;
9447;SDS011;4762;48.128;11.376;2023-02-23T11:35:56;9.13;;;6.70;;
9447;SDS011;4762;48.128;11.376;2023-02-23T11:37:58;13.80;;;4.97;;
9447;SDS011;4762;48.128;11.376;2023-02-23T11:40:01;7.03;;;4.27;;
9447;SDS011;4762;48.128;11.376;2023-02-23T11:46:19;3.67;;;2.73;;
9447;SDS011;4762;48.128;11.376;2023-02-23T11:48:25;12.57;;;4.20;;
9447;SDS011;4762;48.128;11.376;2023-02-23T11:50:28;3.30;;;2.27;;
9447;SDS011;4762;48.128;11.376;2023-02-23T11:52:30;4.80;;;2.37;;
9447;SDS011;4762;48.128;11.376;2023-02-23T11:54:33;2.80;;;1.83;;
9447;SDS011;4762;48.128;11.376;2023-02-23T11:56:35;3.00;;;1.73;;
9447;SDS011;4762;48.128;11.376;2023-02-23T11:58:39;4.90;;;2.10;;
9447;SDS011;4762;48.128;11.376;2023-02-23T12:00:53;5.50;;;2.30;;
9447;SDS011;4762;48.128;11.376;2023-02-23T12:02:55;6.30;;;2.43;;
9447;SDS011;4762;48.128;11.376;2023-02-23T12:05:05;8.63;;;2.47;;
9447;SDS011;4762;48.128;11.376;2023-02-23T12:09:21;2.67;;;1.50;;
9447;SDS011;4762;48.128;11.376;2023-02-23T12:11:23;3.17;;;1.80;;
9447;SDS011;4762;48.128;11.376;2023-02-23T12:13:31;2.40;;;1.40;;
9447;SDS011;4762;48.128;11.376;2023-02-23T12:15:35;3.20;;;1.80;;
9447;SDS011;4762;48.128;11.376;2023-02-23T12:17:44;4.90;;;2.13;;
9447;SDS011;4762;48.128;11.376;2023-02-23T12:19:46;2.57;;;1.60;;
9447;SDS011;4762;48.128;11.376;2023-02-23T12:21:51;3.03;;;1.87;;
9447;SDS011;4762;48.128;11.376;2023-02-23T12:23:56;4.00;;;2.07;;
9447;SDS011;4762;48.128;11.376;2023-02-23T12:25:56;2.40;;;1.67;;
9447;SDS011;4762;48.128;11.376;2023-02-23T12:28:00;5.03;;;2.00;;
9447;SDS011;4762;48.128;11.376;2023-02-23T12:30:04;2.90;;;1.73;;
9447;SDS011;4762;48.128;11.376;2023-02-23T12:32:21;2.70;;;1.77;;
9447;SDS011;4762;48.128;11.376;2023-02-23T12:36:52;2.30;;;1.20;;
9447;SDS011;4762;48.128;11.376;2023-02-23T12:38:56;2.77;;;1.43;;
9447;SDS011;4762;48.128;11.376;2023-02-23T12:41:05;5.27;;;1.90;;
9447;SDS011;4762;48.128;11.376;2023-02-23T12:43:16;3.53;;;1.37;;
9447;SDS011;4762;48.128;11.376;2023-02-23T12:45:24;3.10;;;1.27;;
9447;SDS011;4762;48.128;11.376;2023-02-23T12:47:30;2.17;;;1.00;;
9447;SDS011;4762;48.128;11.376;2023-02-23T12:49:44;1.90;;;1.00;;
9447;SDS011;4762;48.128;11.376;2023-02-23T12:51:54;1.77;;;1.00;;
9447;SDS011;4762;48.128;11.376;2023-02-23T12:54:01;3.20;;;1.30;;
9447;SDS011;4762;48.128;11.376;2023-02-23T12:56:13;3.80;;;1.37;;
9447;SDS011;4762;48.128;11.376;2023-02-23T12:58:26;1.50;;;0.60;;
9447;SDS011;4762;48.128;11.376;2023-02-23T13:00:43;2.03;;;0.80;;
9447;SDS011;4762;48.128;11.376;2023-02-23T13:02:47;2.40;;;0.90;;